sensor_id;sensor_type;location;lat;lon;timestamp;temperature;humidity
68511;SHT31;55512;50.102;19.958;2022-09-27T00:00:39;11.42;75.43
68511;SHT31;55512;50.102;19.958;2022-09-27T00:03:08;11.41;75.55
68511;SHT31;55512;50.102;19.958;2022-09-27T00:05:35;11.37;75.61
68511;SHT31;55512;50.102;19.958;2022-09-27T00:08:01;11.33;75.62
68511;SHT31;55512;50.102;19.958;2022-09-27T00:10:28;11.30;75.74
68511;SHT31;55512;50.102;19.958;2022-09-27T00:12:54;11.31;75.86
68511;SHT31;55512;50.102;19.958;2022-09-27T00:15:20;11.30;75.86
68511;SHT31;55512;50.102;19.958;2022-09-27T00:17:46;11.28;75.90
68511;SHT31;55512;50.102;19.958;2022-09-27T00:20:15;11.26;75.99
68511;SHT31;55512;50.102;19.958;2022-09-27T00:22:43;11.22;76.00
68511;SHT31;55512;50.102;19.958;2022-09-27T00:25:08;11.20;76.10
68511;SHT31;55512;50.102;19.958;2022-09-27T00:27:34;11.18;76.19
68511;SHT31;55512;50.102;19.958;2022-09-27T00:29:59;11.17;76.31
68511;SHT31;55512;50.102;19.958;2022-09-27T00:32:24;11.14;76.38
68511;SHT31;55512;50.102;19.958;2022-09-27T00:34:50;11.13;76.47
68511;SHT31;55512;50.102;19.958;2022-09-27T00:37:15;11.13;76.44
68511;SHT31;55512;50.102;19.958;2022-09-27T00:39:41;11.12;76.43
68511;SHT31;55512;50.102;19.958;2022-09-27T00:42:10;11.09;76.40
68511;SHT31;55512;50.102;19.958;2022-09-27T00:47:49;10.99;76.42
68511;SHT31;55512;50.102;19.958;2022-09-27T00:50:28;10.93;76.50
68511;SHT31;55512;50.102;19.958;2022-09-27T00:55:34;10.83;76.62
68511;SHT31;55512;50.102;19.958;2022-09-27T00:58:07;10.81;76.65
68511;SHT31;55512;50.102;19.958;2022-09-27T01:00:37;10.77;76.64
68511;SHT31;55512;50.102;19.958;2022-09-27T01:03:08;10.71;76.64
68511;SHT31;55512;50.102;19.958;2022-09-27T01:05:45;10.69;76.69
68511;SHT31;55512;50.102;19.958;2022-09-27T01:08:11;10.67;76.70
68511;SHT31;55512;50.102;19.958;2022-09-27T01:10:39;10.64;76.69
68511;SHT31;55512;50.102;19.958;2022-09-27T01:13:19;10.62;76.60
68511;SHT31;55512;50.102;19.958;2022-09-27T01:16:09;10.60;76.50
68511;SHT31;55512;50.102;19.958;2022-09-27T01:30:30;10.47;76.30
68511;SHT31;55512;50.102;19.958;2022-09-27T01:33:42;10.44;76.40
68511;SHT31;55512;50.102;19.958;2022-09-27T01:39:07;10.42;76.37
68511;SHT31;55512;50.102;19.958;2022-09-27T01:48:03;10.37;76.72
68511;SHT31;55512;50.102;19.958;2022-09-27T01:50:40;10.35;76.72
68511;SHT31;55512;50.102;19.958;2022-09-27T01:53:30;10.31;76.66
68511;SHT31;55512;50.102;19.958;2022-09-27T01:56:04;10.29;76.92
68511;SHT31;55512;50.102;19.958;2022-09-27T01:58:45;10.28;77.06
68511;SHT31;55512;50.102;19.958;2022-09-27T02:01:20;10.25;77.14
68511;SHT31;55512;50.102;19.958;2022-09-27T02:03:50;10.24;77.23
68511;SHT31;55512;50.102;19.958;2022-09-27T02:06:27;10.25;77.35
68511;SHT31;55512;50.102;19.958;2022-09-27T02:09:03;10.23;77.24
68511;SHT31;55512;50.102;19.958;2022-09-27T02:11:38;10.17;77.11
68511;SHT31;55512;50.102;19.958;2022-09-27T02:14:14;10.13;77.10
68511;SHT31;55512;50.102;19.958;2022-09-27T02:17:12;10.11;77.09
68511;SHT31;55512;50.102;19.958;2022-09-27T02:27:35;10.06;77.07
68511;SHT31;55512;50.102;19.958;2022-09-27T02:30:24;10.05;77.09
68511;SHT31;55512;50.102;19.958;2022-09-27T02:32:50;10.05;77.08
68511;SHT31;55512;50.102;19.958;2022-09-27T02:35:30;10.04;77.00
68511;SHT31;55512;50.102;19.958;2022-09-27T02:37:58;10.04;76.94
68511;SHT31;55512;50.102;19.958;2022-09-27T02:40:29;10.02;76.90
68511;SHT31;55512;50.102;19.958;2022-09-27T02:42:59;10.02;76.87
68511;SHT31;55512;50.102;19.958;2022-09-27T02:45:29;10.03;76.81
68511;SHT31;55512;50.102;19.958;2022-09-27T02:54:15;10.00;76.60
68511;SHT31;55512;50.102;19.958;2022-09-27T02:57:01;9.96;76.60
68511;SHT31;55512;50.102;19.958;2022-09-27T02:59:44;9.93;76.69
68511;SHT31;55512;50.102;19.958;2022-09-27T03:02:32;9.89;76.72
68511;SHT31;55512;50.102;19.958;2022-09-27T03:05:19;9.87;76.85
68511;SHT31;55512;50.102;19.958;2022-09-27T03:07:50;9.88;76.90
68511;SHT31;55512;50.102;19.958;2022-09-27T03:10:20;9.89;76.90
68511;SHT31;55512;50.102;19.958;2022-09-27T03:12:50;9.88;76.90
68511;SHT31;55512;50.102;19.958;2022-09-27T03:15:16;9.88;76.99
68511;SHT31;55512;50.102;19.958;2022-09-27T03:17:41;9.88;77.04
68511;SHT31;55512;50.102;19.958;2022-09-27T03:20:07;9.87;77.10
68511;SHT31;55512;50.102;19.958;2022-09-27T03:22:34;9.85;77.02
68511;SHT31;55512;50.102;19.958;2022-09-27T03:24:59;9.80;77.00
68511;SHT31;55512;50.102;19.958;2022-09-27T03:27:25;9.76;77.00
68511;SHT31;55512;50.102;19.958;2022-09-27T03:29:51;9.72;77.13
68511;SHT31;55512;50.102;19.958;2022-09-27T03:32:17;9.69;77.28
68511;SHT31;55512;50.102;19.958;2022-09-27T03:34:43;9.69;77.39
68511;SHT31;55512;50.102;19.958;2022-09-27T03:37:09;9.69;77.33
68511;SHT31;55512;50.102;19.958;2022-09-27T03:39:34;9.66;77.20
68511;SHT31;55512;50.102;19.958;2022-09-27T03:42:00;9.61;77.06
68511;SHT31;55512;50.102;19.958;2022-09-27T03:44:25;9.56;77.02
68511;SHT31;55512;50.102;19.958;2022-09-27T03:46:51;9.52;76.99
68511;SHT31;55512;50.102;19.958;2022-09-27T03:49:16;9.50;76.99
68511;SHT31;55512;50.102;19.958;2022-09-27T03:51:42;9.49;77.00
68511;SHT31;55512;50.102;19.958;2022-09-27T03:54:08;9.48;77.00
68511;SHT31;55512;50.102;19.958;2022-09-27T03:56:34;9.49;77.02
68511;SHT31;55512;50.102;19.958;2022-09-27T03:58:59;9.50;77.07
68511;SHT31;55512;50.102;19.958;2022-09-27T04:01:26;9.51;77.10
68511;SHT31;55512;50.102;19.958;2022-09-27T04:03:52;9.53;77.10
68511;SHT31;55512;50.102;19.958;2022-09-27T04:06:18;9.53;77.17
68511;SHT31;55512;50.102;19.958;2022-09-27T04:08:44;9.55;77.20
68511;SHT31;55512;50.102;19.958;2022-09-27T04:11:10;9.54;77.21
68511;SHT31;55512;50.102;19.958;2022-09-27T04:13:36;9.52;77.31
68511;SHT31;55512;50.102;19.958;2022-09-27T04:16:02;9.54;77.42
68511;SHT31;55512;50.102;19.958;2022-09-27T04:18:28;9.55;77.50
68511;SHT31;55512;50.102;19.958;2022-09-27T04:20:54;9.55;77.60
68511;SHT31;55512;50.102;19.958;2022-09-27T04:23:19;9.56;77.60
68511;SHT31;55512;50.102;19.958;2022-09-27T04:25:45;9.56;77.60
68511;SHT31;55512;50.102;19.958;2022-09-27T04:28:11;9.58;77.54
68511;SHT31;55512;50.102;19.958;2022-09-27T04:30:37;9.56;77.50
68511;SHT31;55512;50.102;19.958;2022-09-27T04:33:03;9.55;77.50
68511;SHT31;55512;50.102;19.958;2022-09-27T04:35:29;9.54;77.42
68511;SHT31;55512;50.102;19.958;2022-09-27T04:38:13;9.53;77.40
68511;SHT31;55512;50.102;19.958;2022-09-27T04:40:39;9.51;77.30
68511;SHT31;55512;50.102;19.958;2022-09-27T04:43:05;9.47;77.21
68511;SHT31;55512;50.102;19.958;2022-09-27T04:45:31;9.44;77.19
68511;SHT31;55512;50.102;19.958;2022-09-27T04:47:57;9.44;77.20
68511;SHT31;55512;50.102;19.958;2022-09-27T04:50:23;9.46;77.20
68511;SHT31;55512;50.102;19.958;2022-09-27T04:52:49;9.46;77.20
68511;SHT31;55512;50.102;19.958;2022-09-27T04:55:17;9.47;77.20
68511;SHT31;55512;50.102;19.958;2022-09-27T04:57:43;9.48;77.21
68511;SHT31;55512;50.102;19.958;2022-09-27T05:00:09;9.49;77.29
68511;SHT31;55512;50.102;19.958;2022-09-27T05:02:37;9.52;77.31
68511;SHT31;55512;50.102;19.958;2022-09-27T05:05:03;9.55;77.30
68511;SHT31;55512;50.102;19.958;2022-09-27T05:07:32;9.56;77.30
68511;SHT31;55512;50.102;19.958;2022-09-27T05:09:59;9.57;77.27
68511;SHT31;55512;50.102;19.958;2022-09-27T05:12:24;9.59;77.30
68511;SHT31;55512;50.102;19.958;2022-09-27T05:14:53;9.61;77.27
68511;SHT31;55512;50.102;19.958;2022-09-27T05:17:18;9.60;77.21
68511;SHT31;55512;50.102;19.958;2022-09-27T05:19:46;9.60;77.17
68511;SHT31;55512;50.102;19.958;2022-09-27T05:22:12;9.60;77.12
68511;SHT31;55512;50.102;19.958;2022-09-27T05:24:38;9.60;77.10
68511;SHT31;55512;50.102;19.958;2022-09-27T05:27:04;9.59;77.11
68511;SHT31;55512;50.102;19.958;2022-09-27T05:29:32;9.58;77.17
68511;SHT31;55512;50.102;19.958;2022-09-27T05:32:01;9.59;77.15
68511;SHT31;55512;50.102;19.958;2022-09-27T05:34:27;9.59;77.20
68511;SHT31;55512;50.102;19.958;2022-09-27T05:36:53;9.59;77.20
68511;SHT31;55512;50.102;19.958;2022-09-27T05:39:18;9.57;77.27
68511;SHT31;55512;50.102;19.958;2022-09-27T05:41:44;9.57;77.30
68511;SHT31;55512;50.102;19.958;2022-09-27T05:44:13;9.57;77.30
68511;SHT31;55512;50.102;19.958;2022-09-27T05:46:38;9.57;77.37
68511;SHT31;55512;50.102;19.958;2022-09-27T05:49:04;9.57;77.39
68511;SHT31;55512;50.102;19.958;2022-09-27T05:51:30;9.62;77.48
68511;SHT31;55512;50.102;19.958;2022-09-27T05:53:56;9.67;77.49
68511;SHT31;55512;50.102;19.958;2022-09-27T05:56:22;9.73;77.50
68511;SHT31;55512;50.102;19.958;2022-09-27T05:58:49;9.79;77.51
68511;SHT31;55512;50.102;19.958;2022-09-27T06:01:15;9.85;77.55
68511;SHT31;55512;50.102;19.958;2022-09-27T06:03:41;9.92;77.60
68511;SHT31;55512;50.102;19.958;2022-09-27T06:06:08;10.00;77.66
68511;SHT31;55512;50.102;19.958;2022-09-27T06:08:35;10.10;77.65
68511;SHT31;55512;50.102;19.958;2022-09-27T06:11:04;10.19;77.53
68511;SHT31;55512;50.102;19.958;2022-09-27T06:13:38;10.27;77.53
68511;SHT31;55512;50.102;19.958;2022-09-27T06:16:05;10.38;77.50
68511;SHT31;55512;50.102;19.958;2022-09-27T06:18:33;10.49;77.51
68511;SHT31;55512;50.102;19.958;2022-09-27T06:20:59;10.59;77.45
68511;SHT31;55512;50.102;19.958;2022-09-27T06:23:27;10.69;77.41
68511;SHT31;55512;50.102;19.958;2022-09-27T06:25:59;10.79;77.39
68511;SHT31;55512;50.102;19.958;2022-09-27T06:28:27;10.90;77.30
68511;SHT31;55512;50.102;19.958;2022-09-27T06:30:53;11.01;77.23
68511;SHT31;55512;50.102;19.958;2022-09-27T06:33:20;11.11;77.15
68511;SHT31;55512;50.102;19.958;2022-09-27T06:35:45;11.19;77.09
68511;SHT31;55512;50.102;19.958;2022-09-27T06:38:13;11.26;77.03
68511;SHT31;55512;50.102;19.958;2022-09-27T06:40:42;11.35;77.00
68511;SHT31;55512;50.102;19.958;2022-09-27T06:43:09;11.42;76.93
68511;SHT31;55512;50.102;19.958;2022-09-27T06:45:37;11.51;76.88
68511;SHT31;55512;50.102;19.958;2022-09-27T06:48:04;11.55;76.80
68511;SHT31;55512;50.102;19.958;2022-09-27T06:50:33;11.59;76.76
68511;SHT31;55512;50.102;19.958;2022-09-27T06:53:01;11.66;76.73
68511;SHT31;55512;50.102;19.958;2022-09-27T06:55:29;11.73;76.70
68511;SHT31;55512;50.102;19.958;2022-09-27T06:57:55;11.82;76.64
68511;SHT31;55512;50.102;19.958;2022-09-27T07:00:42;11.90;76.54
68511;SHT31;55512;50.102;19.958;2022-09-27T07:03:09;11.98;76.45
68511;SHT31;55512;50.102;19.958;2022-09-27T07:05:36;12.09;76.38
68511;SHT31;55512;50.102;19.958;2022-09-27T07:08:02;12.18;76.29
68511;SHT31;55512;50.102;19.958;2022-09-27T07:10:30;12.28;76.20
68511;SHT31;55512;50.102;19.958;2022-09-27T07:13:03;12.36;76.15
68511;SHT31;55512;50.102;19.958;2022-09-27T07:15:32;12.46;76.10
68511;SHT31;55512;50.102;19.958;2022-09-27T07:18:02;12.55;76.10
68511;SHT31;55512;50.102;19.958;2022-09-27T07:20:30;12.65;76.10
68511;SHT31;55512;50.102;19.958;2022-09-27T07:22:57;12.75;76.10
68511;SHT31;55512;50.102;19.958;2022-09-27T07:25:24;12.84;76.09
68511;SHT31;55512;50.102;19.958;2022-09-27T07:27:50;12.93;76.09
68511;SHT31;55512;50.102;19.958;2022-09-27T07:30:17;13.02;76.01
68511;SHT31;55512;50.102;19.958;2022-09-27T07:32:45;13.13;75.90
68511;SHT31;55512;50.102;19.958;2022-09-27T07:35:12;13.24;75.86
68511;SHT31;55512;50.102;19.958;2022-09-27T07:37:39;13.34;75.77
68511;SHT31;55512;50.102;19.958;2022-09-27T07:40:06;13.42;75.66
68511;SHT31;55512;50.102;19.958;2022-09-27T07:42:34;13.49;75.58
68511;SHT31;55512;50.102;19.958;2022-09-27T07:45:05;13.59;75.43
68511;SHT31;55512;50.102;19.958;2022-09-27T07:47:32;13.69;75.32
68511;SHT31;55512;50.102;19.958;2022-09-27T07:49:58;13.78;75.24
68511;SHT31;55512;50.102;19.958;2022-09-27T07:52:23;13.89;75.16
68511;SHT31;55512;50.102;19.958;2022-09-27T07:54:49;13.96;74.95
68511;SHT31;55512;50.102;19.958;2022-09-27T07:57:15;14.05;74.88
68511;SHT31;55512;50.102;19.958;2022-09-27T07:59:41;14.14;74.81
68511;SHT31;55512;50.102;19.958;2022-09-27T08:02:13;14.22;74.70
68511;SHT31;55512;50.102;19.958;2022-09-27T08:04:41;14.31;74.59
68511;SHT31;55512;50.102;19.958;2022-09-27T08:07:08;14.40;74.50
68511;SHT31;55512;50.102;19.958;2022-09-27T08:09:35;14.48;74.37
68511;SHT31;55512;50.102;19.958;2022-09-27T08:12:01;14.57;74.31
68511;SHT31;55512;50.102;19.958;2022-09-27T08:14:28;14.67;74.19
68511;SHT31;55512;50.102;19.958;2022-09-27T08:16:54;14.76;73.99
68511;SHT31;55512;50.102;19.958;2022-09-27T08:19:20;14.83;73.74
68511;SHT31;55512;50.102;19.958;2022-09-27T08:21:45;14.90;73.58
68511;SHT31;55512;50.102;19.958;2022-09-27T08:24:11;14.97;73.38
68511;SHT31;55512;50.102;19.958;2022-09-27T08:26:37;15.04;73.15
68511;SHT31;55512;50.102;19.958;2022-09-27T08:29:03;15.11;73.09
68511;SHT31;55512;50.102;19.958;2022-09-27T08:31:29;15.20;72.98
68511;SHT31;55512;50.102;19.958;2022-09-27T08:33:54;15.27;72.87
68511;SHT31;55512;50.102;19.958;2022-09-27T08:36:20;15.36;72.68
68511;SHT31;55512;50.102;19.958;2022-09-27T08:38:47;15.44;72.40
68511;SHT31;55512;50.102;19.958;2022-09-27T08:46:50;15.61;72.00
68511;SHT31;55512;50.102;19.958;2022-09-27T08:49:38;15.68;71.76
68511;SHT31;55512;50.102;19.958;2022-09-27T08:52:18;15.73;71.54
68511;SHT31;55512;50.102;19.958;2022-09-27T08:54:54;15.79;71.42
68511;SHT31;55512;50.102;19.958;2022-09-27T08:57:22;15.83;71.32
68511;SHT31;55512;50.102;19.958;2022-09-27T09:02:35;15.94;71.25
68511;SHT31;55512;50.102;19.958;2022-09-27T09:05:05;16.01;71.06
68511;SHT31;55512;50.102;19.958;2022-09-27T09:10:30;16.10;70.62
68511;SHT31;55512;50.102;19.958;2022-09-27T09:27:18;16.57;69.02
68511;SHT31;55512;50.102;19.958;2022-09-27T09:30:19;16.67;68.68
68511;SHT31;55512;50.102;19.958;2022-09-27T09:36:33;16.86;67.86
68511;SHT31;55512;50.102;19.958;2022-09-27T09:39:07;16.93;67.47
68511;SHT31;55512;50.102;19.958;2022-09-27T09:42:23;17.03;67.52
68511;SHT31;55512;50.102;19.958;2022-09-27T09:44:55;17.13;67.38
68511;SHT31;55512;50.102;19.958;2022-09-27T09:50:41;17.27;66.86
68511;SHT31;55512;50.102;19.958;2022-09-27T10:01:19;17.61;66.57
68511;SHT31;55512;50.102;19.958;2022-09-27T10:03:57;17.69;66.60
68511;SHT31;55512;50.102;19.958;2022-09-27T10:06:23;17.78;66.60
68511;SHT31;55512;50.102;19.958;2022-09-27T10:08:51;17.86;66.47
68511;SHT31;55512;50.102;19.958;2022-09-27T10:11:31;17.95;66.31
68511;SHT31;55512;50.102;19.958;2022-09-27T10:14:04;18.06;66.10
68511;SHT31;55512;50.102;19.958;2022-09-27T10:16:36;18.15;65.66
68511;SHT31;55512;50.102;19.958;2022-09-27T10:19:07;18.23;65.05
68511;SHT31;55512;50.102;19.958;2022-09-27T10:21:34;18.31;65.13
68511;SHT31;55512;50.102;19.958;2022-09-27T10:24:08;18.40;65.21
68511;SHT31;55512;50.102;19.958;2022-09-27T10:26:40;18.49;64.95
68511;SHT31;55512;50.102;19.958;2022-09-27T10:31:44;18.67;64.46
68511;SHT31;55512;50.102;19.958;2022-09-27T10:36:48;18.90;64.03
68511;SHT31;55512;50.102;19.958;2022-09-27T10:39:41;19.03;63.91
68511;SHT31;55512;50.102;19.958;2022-09-27T10:47:51;19.21;63.10
68511;SHT31;55512;50.102;19.958;2022-09-27T10:50:23;19.26;62.50
68511;SHT31;55512;50.102;19.958;2022-09-27T10:55:45;19.33;62.54
68511;SHT31;55512;50.102;19.958;2022-09-27T10:58:28;19.37;62.26
68511;SHT31;55512;50.102;19.958;2022-09-27T11:00:59;19.43;62.06
68511;SHT31;55512;50.102;19.958;2022-09-27T11:03:38;19.50;61.86
68511;SHT31;55512;50.102;19.958;2022-09-27T11:08:49;19.68;61.94
68511;SHT31;55512;50.102;19.958;2022-09-27T11:13:58;19.87;61.84
68511;SHT31;55512;50.102;19.958;2022-09-27T11:24:57;20.33;60.93
68511;SHT31;55512;50.102;19.958;2022-09-27T11:50:48;21.00;58.58
68511;SHT31;55512;50.102;19.958;2022-09-27T11:53:37;21.06;58.47
68511;SHT31;55512;50.102;19.958;2022-09-27T11:56:59;21.14;58.47
68511;SHT31;55512;50.102;19.958;2022-09-27T12:14:15;21.64;57.56
68511;SHT31;55512;50.102;19.958;2022-09-27T12:16:58;21.71;57.24
68511;SHT31;55512;50.102;19.958;2022-09-27T12:19:41;21.79;56.92
68511;SHT31;55512;50.102;19.958;2022-09-27T12:22:15;21.86;56.76
68511;SHT31;55512;50.102;19.958;2022-09-27T12:24:52;21.93;56.79
68511;SHT31;55512;50.102;19.958;2022-09-27T12:30:05;22.07;56.51
68511;SHT31;55512;50.102;19.958;2022-09-27T12:32:37;22.11;56.05
68511;SHT31;55512;50.102;19.958;2022-09-27T12:35:31;22.16;55.75
68511;SHT31;55512;50.102;19.958;2022-09-27T12:38:08;22.21;55.67
68511;SHT31;55512;50.102;19.958;2022-09-27T12:40:52;22.31;55.10
68511;SHT31;55512;50.102;19.958;2022-09-27T12:43:23;22.34;54.44
68511;SHT31;55512;50.102;19.958;2022-09-27T12:45:55;22.37;54.02
68511;SHT31;55512;50.102;19.958;2022-09-27T12:52:10;22.49;52.59
68511;SHT31;55512;50.102;19.958;2022-09-27T13:07:09;22.84;50.94
68511;SHT31;55512;50.102;19.958;2022-09-27T13:12:54;22.92;50.27
68511;SHT31;55512;50.102;19.958;2022-09-27T13:15:33;22.95;50.25
68511;SHT31;55512;50.102;19.958;2022-09-27T13:18:05;22.98;50.27
68511;SHT31;55512;50.102;19.958;2022-09-27T13:32:32;23.13;49.72
68511;SHT31;55512;50.102;19.958;2022-09-27T13:45:35;24.00;47.52
68511;SHT31;55512;50.102;19.958;2022-09-27T13:51:03;23.79;46.84
68511;SHT31;55512;50.102;19.958;2022-09-27T13:53:54;23.55;46.67
68511;SHT31;55512;50.102;19.958;2022-09-27T13:59:03;23.07;47.17
68511;SHT31;55512;50.102;19.958;2022-09-27T14:01:41;22.87;47.25
68511;SHT31;55512;50.102;19.958;2022-09-27T14:04:23;22.65;47.50
68511;SHT31;55512;50.102;19.958;2022-09-27T14:07:05;22.46;47.67
68511;SHT31;55512;50.102;19.958;2022-09-27T14:09:39;22.27;47.79
68511;SHT31;55512;50.102;19.958;2022-09-27T14:12:20;22.08;48.21
68511;SHT31;55512;50.102;19.958;2022-09-27T14:14:53;21.93;48.75
68511;SHT31;55512;50.102;19.958;2022-09-27T14:17:21;21.81;49.06
68511;SHT31;55512;50.102;19.958;2022-09-27T14:19:47;21.66;49.22
68511;SHT31;55512;50.102;19.958;2022-09-27T14:22:15;21.53;49.37
68511;SHT31;55512;50.102;19.958;2022-09-27T14:24:48;21.45;49.56
68511;SHT31;55512;50.102;19.958;2022-09-27T14:27:26;21.42;49.76
68511;SHT31;55512;50.102;19.958;2022-09-27T14:30:05;21.34;49.94
68511;SHT31;55512;50.102;19.958;2022-09-27T14:32:46;21.23;50.24
68511;SHT31;55512;50.102;19.958;2022-09-27T14:35:22;21.13;50.51
68511;SHT31;55512;50.102;19.958;2022-09-27T14:38:12;21.02;50.89
68511;SHT31;55512;50.102;19.958;2022-09-27T14:41:00;20.92;51.16
68511;SHT31;55512;50.102;19.958;2022-09-27T14:43:29;20.81;51.19
68511;SHT31;55512;50.102;19.958;2022-09-27T14:46:01;20.69;51.50
68511;SHT31;55512;50.102;19.958;2022-09-27T14:48:34;20.58;51.94
68511;SHT31;55512;50.102;19.958;2022-09-27T14:53:41;20.39;52.30
68511;SHT31;55512;50.102;19.958;2022-09-27T14:56:21;20.28;52.56
68511;SHT31;55512;50.102;19.958;2022-09-27T14:59:02;20.20;53.11
68511;SHT31;55512;50.102;19.958;2022-09-27T15:01:36;20.09;53.17
68511;SHT31;55512;50.102;19.958;2022-09-27T15:04:04;19.91;53.69
68511;SHT31;55512;50.102;19.958;2022-09-27T15:06:35;19.88;54.09
68511;SHT31;55512;50.102;19.958;2022-09-27T15:09:02;19.78;54.48
68511;SHT31;55512;50.102;19.958;2022-09-27T15:11:31;19.61;54.92
68511;SHT31;55512;50.102;19.958;2022-09-27T15:13:58;19.61;55.21
68511;SHT31;55512;50.102;19.958;2022-09-27T15:16:27;19.57;55.33
68511;SHT31;55512;50.102;19.958;2022-09-27T15:21:34;19.49;55.98
68511;SHT31;55512;50.102;19.958;2022-09-27T15:24:01;19.43;56.96
68511;SHT31;55512;50.102;19.958;2022-09-27T15:26:39;19.33;56.87
68511;SHT31;55512;50.102;19.958;2022-09-27T15:29:17;19.28;57.15
68511;SHT31;55512;50.102;19.958;2022-09-27T15:31:57;19.13;57.47
68511;SHT31;55512;50.102;19.958;2022-09-27T15:34:26;18.81;58.26
68511;SHT31;55512;50.102;19.958;2022-09-27T15:36:55;18.55;59.22
68511;SHT31;55512;50.102;19.958;2022-09-27T15:39:40;18.33;60.11
68511;SHT31;55512;50.102;19.958;2022-09-27T15:42:07;18.19;60.60
68511;SHT31;55512;50.102;19.958;2022-09-27T15:44:42;18.09;61.02
68511;SHT31;55512;50.102;19.958;2022-09-27T15:50:41;17.73;61.74
68511;SHT31;55512;50.102;19.958;2022-09-27T15:52:55;17.41;62.06
68511;SHT31;55512;50.102;19.958;2022-09-27T15:55:22;17.18;62.57
68511;SHT31;55512;50.102;19.958;2022-09-27T15:58:02;16.89;63.22
68511;SHT31;55512;50.102;19.958;2022-09-27T16:00:32;16.67;63.88
68511;SHT31;55512;50.102;19.958;2022-09-27T16:03:00;16.55;64.20
68511;SHT31;55512;50.102;19.958;2022-09-27T16:05:26;16.43;64.69
68511;SHT31;55512;50.102;19.958;2022-09-27T16:07:53;16.31;65.20
68511;SHT31;55512;50.102;19.958;2022-09-27T16:10:20;16.21;65.46
68511;SHT31;55512;50.102;19.958;2022-09-27T16:12:51;16.03;65.25
68511;SHT31;55512;50.102;19.958;2022-09-27T16:15:17;15.88;65.26
68511;SHT31;55512;50.102;19.958;2022-09-27T16:17:42;15.73;65.38
68511;SHT31;55512;50.102;19.958;2022-09-27T16:22:48;15.33;65.97
68511;SHT31;55512;50.102;19.958;2022-09-27T16:25:15;15.17;66.31
68511;SHT31;55512;50.102;19.958;2022-09-27T16:27:42;15.06;66.57
68511;SHT31;55512;50.102;19.958;2022-09-27T16:30:07;14.95;66.79
68511;SHT31;55512;50.102;19.958;2022-09-27T16:32:38;14.85;66.97
68511;SHT31;55512;50.102;19.958;2022-09-27T16:35:09;14.78;67.16
68511;SHT31;55512;50.102;19.958;2022-09-27T16:37:36;14.69;67.45
68511;SHT31;55512;50.102;19.958;2022-09-27T16:40:03;14.55;67.59
68511;SHT31;55512;50.102;19.958;2022-09-27T16:42:32;14.45;67.77
68511;SHT31;55512;50.102;19.958;2022-09-27T16:44:59;14.41;67.87
68511;SHT31;55512;50.102;19.958;2022-09-27T16:47:26;14.39;67.89
68511;SHT31;55512;50.102;19.958;2022-09-27T16:49:52;14.37;68.03
68511;SHT31;55512;50.102;19.958;2022-09-27T16:52:37;14.33;68.24
68511;SHT31;55512;50.102;19.958;2022-09-27T16:55:02;14.28;68.41
68511;SHT31;55512;50.102;19.958;2022-09-27T16:57:31;14.25;68.54
68511;SHT31;55512;50.102;19.958;2022-09-27T17:00:02;14.23;68.53
68511;SHT31;55512;50.102;19.958;2022-09-27T17:02:29;14.23;68.59
68511;SHT31;55512;50.102;19.958;2022-09-27T17:04:54;14.22;68.71
68511;SHT31;55512;50.102;19.958;2022-09-27T17:07:20;14.20;68.85
68511;SHT31;55512;50.102;19.958;2022-09-27T17:09:46;14.15;68.95
68511;SHT31;55512;50.102;19.958;2022-09-27T17:12:12;14.13;69.01
68511;SHT31;55512;50.102;19.958;2022-09-27T17:14:39;14.16;69.08
68511;SHT31;55512;50.102;19.958;2022-09-27T17:17:06;14.15;69.23
68511;SHT31;55512;50.102;19.958;2022-09-27T17:19:32;14.13;69.44
68511;SHT31;55512;50.102;19.958;2022-09-27T17:21:58;14.09;69.77
68511;SHT31;55512;50.102;19.958;2022-09-27T17:24:25;14.04;70.01
68511;SHT31;55512;50.102;19.958;2022-09-27T17:26:50;14.00;70.39
68511;SHT31;55512;50.102;19.958;2022-09-27T17:29:16;13.98;70.52
68511;SHT31;55512;50.102;19.958;2022-09-27T17:31:42;13.95;70.74
68511;SHT31;55512;50.102;19.958;2022-09-27T17:34:10;13.92;70.96
68511;SHT31;55512;50.102;19.958;2022-09-27T17:36:38;13.89;71.19
68511;SHT31;55512;50.102;19.958;2022-09-27T17:39:09;13.86;71.35
68511;SHT31;55512;50.102;19.958;2022-09-27T17:41:37;13.86;71.44
68511;SHT31;55512;50.102;19.958;2022-09-27T17:44:03;13.83;71.63
68511;SHT31;55512;50.102;19.958;2022-09-27T17:46:33;13.78;71.80
68511;SHT31;55512;50.102;19.958;2022-09-27T17:49:00;13.78;71.97
68511;SHT31;55512;50.102;19.958;2022-09-27T17:51:46;13.78;71.99
68511;SHT31;55512;50.102;19.958;2022-09-27T17:54:15;13.81;71.98
68511;SHT31;55512;50.102;19.958;2022-09-27T17:56:43;13.82;72.09
68511;SHT31;55512;50.102;19.958;2022-09-27T17:59:11;13.82;72.26
68511;SHT31;55512;50.102;19.958;2022-09-27T18:01:39;13.83;72.44
68511;SHT31;55512;50.102;19.958;2022-09-27T18:04:08;13.81;72.68
68511;SHT31;55512;50.102;19.958;2022-09-27T18:06:37;13.82;72.65
68511;SHT31;55512;50.102;19.958;2022-09-27T18:09:08;13.80;72.87
68511;SHT31;55512;50.102;19.958;2022-09-27T18:11:36;13.77;72.99
68511;SHT31;55512;50.102;19.958;2022-09-27T18:14:03;13.76;73.03
68511;SHT31;55512;50.102;19.958;2022-09-27T18:16:30;13.75;73.06
68511;SHT31;55512;50.102;19.958;2022-09-27T18:19:01;13.73;73.02
68511;SHT31;55512;50.102;19.958;2022-09-27T18:21:29;13.75;73.00
68511;SHT31;55512;50.102;19.958;2022-09-27T18:23:55;13.74;73.11
68511;SHT31;55512;50.102;19.958;2022-09-27T18:26:24;13.71;73.05
68511;SHT31;55512;50.102;19.958;2022-09-27T18:28:53;13.72;73.00
68511;SHT31;55512;50.102;19.958;2022-09-27T18:31:24;13.72;73.04
68511;SHT31;55512;50.102;19.958;2022-09-27T18:33:50;13.72;73.05
68511;SHT31;55512;50.102;19.958;2022-09-27T18:36:19;13.69;73.09
68511;SHT31;55512;50.102;19.958;2022-09-27T18:38:52;13.70;73.08
68511;SHT31;55512;50.102;19.958;2022-09-27T18:41:26;13.71;73.17
68511;SHT31;55512;50.102;19.958;2022-09-27T18:43:59;13.72;73.19
68511;SHT31;55512;50.102;19.958;2022-09-27T18:46:28;13.69;73.33
68511;SHT31;55512;50.102;19.958;2022-09-27T18:49:00;13.62;73.49
68511;SHT31;55512;50.102;19.958;2022-09-27T18:51:27;13.61;73.50
68511;SHT31;55512;50.102;19.958;2022-09-27T18:54:00;13.59;73.61
68511;SHT31;55512;50.102;19.958;2022-09-27T18:56:29;13.57;73.68
68511;SHT31;55512;50.102;19.958;2022-09-27T18:58:56;13.56;73.71
68511;SHT31;55512;50.102;19.958;2022-09-27T19:01:22;13.56;73.71
68511;SHT31;55512;50.102;19.958;2022-09-27T19:03:49;13.58;73.74
68511;SHT31;55512;50.102;19.958;2022-09-27T19:06:16;13.59;73.78
68511;SHT31;55512;50.102;19.958;2022-09-27T19:08:45;13.59;73.80